KHDE/HDE METAR and TAF weather

Enter ICAO airport designator
Station Type Date Time Source
KHDE METAR 2020/03/28 08:35 UTC NOAA

KHDE 280835Z AUTO 06005KT 5SM BR OVC003 05/05 A2959 RMK AO2 LTG DSNT NE T00510047


Station Type Date Time Source
KHDE Decoded METAR 2020/03/28 08:35 UTC NOAA

Brewster Field Airport, NE, United States (KHDE) 40-27N 099-20W
Mar 28, 2020 - 04:35 AM EDT / 2020.03.28 0835 UTC
Wind: from the ENE (060 degrees) at 6 MPH (5 KT):0
Visibility: 5 mile(s):0
Sky conditions: overcast
Weather: mist; Lightning observed
Temperature: 41.2 F (5.1 C)
Dew Point: 40.5 F (4.7 C)
Relative Humidity: 97%
Pressure (altimeter): 29.59 in. Hg (1002 hPa)
ob: KHDE 280835Z AUTO 06005KT 5SM BR OVC003 05/05 A2959 RMK AO2 LTG DSNT NE T00510047
cycle: 8

Station Type Date Time Source
KHDE TAF UTC NOAA

Error!

Example: see airport list